Brownstown, PA (17508)

5:45 PM EDT on September 02, 2015 (GMT -0400)
Lititz Run, near Millport Conservancy | | Change Station
CLOSE
Current Station
Personal Weather Station
Location: Lititz, PA
Elevation: 410 ft
Nearby Weather Stations

Elev 410 ft 40.14 °N, 76.26 °W | Updated 10 minutes ago

Clear
Clear
87.3 °F
Feels Like 90 °F
N
1.0
Wind Variable Wind from NNE
Gusts 4.0 mph

Today
High -- | Low -- °F
--% Chance of Precip.
Yesterday
High -- | Low -- °F
Precip. -- in
6:33 AM 7:35 PM
Waning Gibbous, 77% visible
Pressure 29.94 in
Visibility 8.0 miles
Clouds Clear
Heat Index 90 °F
Dew Point 66 °F
Humidity 49%
Rainfall 0.00 in
Snow Depth Not available.
UV 3 out of 12
Pollen 9.90 out of 12
Air Quality Not available.
Flu Activity Not available.
METAR KLNS 022053Z 32009KT 300V360 8SM CLR 31/16 A2994 RMK AO2 SLP136 T03110161 55014
Pressure 29.94 in
Visibility 8.0 miles
Clouds Clear
Heat Index 90 °F
Dew Point 66 °F
Humidity 49%
Rainfall 0.00 in
Snow Depth Not available.
UV 3 out of 12
Pollen 9.90 out of 12
Air Quality Not available.
Flu Activity Not available.
METAR KLNS 022053Z 32009KT 300V360 8SM CLR 31/16 A2994 RMK AO2 SLP136 T03110161 55014

10-Day Weather Forecast

×

Almanac

Astronomy

Sep. 02, 2015 Rise Set
Actual Time
Civil Twilight
Nautical Twilight
Astronomical Twilight
Moon
Length of Visible Light
Length of Day
Tomorrow will be .
, % of the Moon is Illuminated

Today's Extremes

State Highs State Lows

Community

WunderPhotos

Upload Photos

1,851,818 photos uploaded!

WunderBlogs® & News

Nearby

Air Quality

  Air Quality AQ Index Pollutant
Not available.

Snow Depth

Station Depth Elevation

Earthquake Activity

City Distance Mag. Time & Date
Minimum magnitude displayed is 2.5.

Coastal Water Temperatures

Place Temperature

Stations

Nearby Weather Stations

Station Location Temp. Windchill Dew Point Humidity Wind Precip. Elev Updated Type